createdAt,value
2022-09-24T00:04:36.040Z,12.23
2022-09-24T00:09:34.929Z,12.30
2022-09-24T00:14:37.084Z,12.24
2022-09-24T00:19:35.258Z,12.39
2022-09-24T00:24:55.394Z,12.43
2022-09-24T00:29:53.836Z,12.32
2022-09-24T00:34:54.304Z,12.21
2022-09-24T00:39:58.125Z,12.07
2022-09-24T00:44:58.738Z,11.94
2022-09-24T00:50:08.979Z,11.94
2022-09-24T00:55:07.164Z,11.68
2022-09-24T01:00:07.800Z,11.39
2022-09-24T01:05:06.161Z,11.49
2022-09-24T01:10:06.643Z,11.32
2022-09-24T01:15:08.413Z,11.43
2022-09-24T01:20:26.594Z,11.67
2022-09-24T01:25:37.701Z,11.64
2022-09-24T01:30:38.374Z,11.28
2022-09-24T01:35:38.783Z,11.83
2022-09-24T01:40:37.929Z,11.86
2022-09-24T01:45:38.852Z,11.69
2022-09-24T01:51:06.551Z,11.37
2022-09-24T01:56:28.470Z,11.47
2022-09-24T02:01:54.262Z,11.43
2022-09-24T02:07:03.966Z,11.33
2022-09-24T02:12:29.884Z,11.57
2022-09-24T02:17:31.275Z,11.18
2022-09-24T02:22:30.238Z,11.11
2022-09-24T02:27:39.689Z,11.09
2022-09-24T02:32:40.239Z,11.28
2022-09-24T02:37:40.851Z,11.14
2022-09-24T02:42:41.189Z,11.08
2022-09-24T02:47:39.928Z,11.09
2022-09-24T02:52:42.805Z,10.90
2022-09-24T02:57:41.918Z,10.87
2022-09-24T03:02:40.149Z,10.89
2022-09-24T03:07:39.508Z,10.65
2022-09-24T03:12:38.394Z,10.64
2022-09-24T03:17:35.795Z,10.51
2022-09-24T03:22:34.139Z,10.41
2022-09-24T03:27:37.396Z,10.50
2022-09-24T03:32:37.076Z,10.16
2022-09-24T03:37:37.230Z,10.43
2022-09-24T03:42:36.073Z,9.83
2022-09-24T03:47:34.331Z,9.89
2022-09-24T03:52:32.366Z,9.83
2022-09-24T03:57:31.355Z,9.95
2022-09-24T04:02:29.783Z,9.82
2022-09-24T04:07:30.911Z,9.80
2022-09-24T04:12:29.843Z,9.73
2022-09-24T04:17:29.191Z,9.74
2022-09-24T04:22:29.218Z,9.61
2022-09-24T04:27:28.519Z,9.68
2022-09-24T04:32:28.484Z,9.58
2022-09-24T04:37:28.926Z,9.41
2022-09-24T04:42:28.057Z,9.94
2022-09-24T04:47:26.288Z,9.81
2022-09-24T04:52:27.173Z,9.73
2022-09-24T04:57:26.535Z,9.72
2022-09-24T05:02:25.054Z,9.74
2022-09-24T05:07:23.455Z,9.76
2022-09-24T05:12:22.495Z,9.84
2022-09-24T05:17:20.814Z,9.78
2022-09-24T05:22:21.508Z,10.27
2022-09-24T05:27:21.852Z,10.32
2022-09-24T05:32:21.630Z,10.28
2022-09-24T05:37:22.683Z,10.22
2022-09-24T05:42:21.033Z,10.57
2022-09-24T05:47:24.304Z,10.43
2022-09-24T05:52:21.787Z,10.61
2022-09-24T05:57:24.959Z,10.76
2022-09-24T06:02:25.841Z,10.89
2022-09-24T06:07:23.749Z,10.63
2022-09-24T06:12:23.721Z,10.88
2022-09-24T06:17:24.591Z,10.92
2022-09-24T06:22:28.345Z,10.49
2022-09-24T06:27:28.317Z,10.65
2022-09-24T06:32:26.834Z,10.68
2022-09-24T06:37:25.172Z,10.78
2022-09-24T06:42:22.568Z,10.93
2022-09-24T06:47:26.524Z,11.01
2022-09-24T06:52:25.108Z,11.04
2022-09-24T06:57:28.945Z,11.29
2022-09-24T07:02:30.425Z,11.22
2022-09-24T07:07:33.121Z,11.58
2022-09-24T07:12:33.235Z,11.87
2022-09-24T07:17:33.936Z,11.93
2022-09-24T07:22:35.253Z,12.01
2022-09-24T07:27:36.737Z,12.46
2022-09-24T07:32:35.958Z,12.49
2022-09-24T07:37:34.701Z,12.53
2022-09-24T07:42:32.860Z,13.01
2022-09-24T07:47:32.729Z,13.26
2022-09-24T07:52:35.784Z,13.15
2022-09-24T07:57:33.743Z,13.25
2022-09-24T08:02:33.476Z,13.45
2022-09-24T08:07:32.327Z,13.76
2022-09-24T08:12:33.669Z,13.83
2022-09-24T08:17:32.831Z,14.28
2022-09-24T08:22:31.859Z,14.06
2022-09-24T08:27:32.960Z,14.43
2022-09-24T08:32:32.991Z,14.44
2022-09-24T08:37:34.122Z,14.65
2022-09-24T08:43:00.514Z,14.72
2022-09-24T08:48:26.363Z,15.30
2022-09-24T08:53:29.979Z,15.43
2022-09-24T08:58:44.335Z,15.56
2022-09-24T09:04:14.351Z,15.63
2022-09-24T09:09:16.871Z,15.90
2022-09-24T09:14:46.097Z,15.99
2022-09-24T09:19:48.205Z,16.18
2022-09-24T09:24:52.991Z,16.37
2022-09-24T09:29:57.291Z,16.35
2022-09-24T09:35:23.432Z,16.82
2022-09-24T09:40:31.631Z,17.05
2022-09-24T09:45:52.650Z,17.25
2022-09-24T09:50:57.389Z,17.33
2022-09-24T09:56:01.797Z,17.35
2022-09-24T10:01:09.918Z,17.64
2022-09-24T10:06:11.577Z,17.74
2022-09-24T10:11:16.626Z,17.88
2022-09-24T10:16:16.556Z,17.92
2022-09-24T10:21:30.238Z,18.12
2022-09-24T10:26:44.784Z,18.12
2022-09-24T10:31:45.910Z,18.21
2022-09-24T10:36:53.529Z,18.54
2022-09-24T10:41:57.346Z,18.35
2022-09-24T10:47:20.143Z,18.59
2022-09-24T10:53:07.931Z,18.51
2022-09-24T10:58:28.916Z,18.80
2022-09-24T11:03:34.590Z,18.91
2022-09-24T11:08:53.030Z,18.93
2022-09-24T11:14:08.195Z,19.09
2022-09-24T11:19:29.094Z,19.06
2022-09-24T11:25:02.574Z,19.27
2022-09-24T11:30:35.618Z,19.06
2022-09-24T11:36:02.573Z,19.20
2022-09-24T11:41:13.248Z,19.38
2022-09-24T11:46:24.620Z,19.48
2022-09-24T11:51:59.659Z,19.63
2022-09-24T11:57:14.582Z,19.35
2022-09-24T12:02:55.204Z,19.61
2022-09-24T12:08:38.668Z,19.84
2022-09-24T12:13:53.517Z,19.93
2022-09-24T12:19:07.861Z,19.84
2022-09-24T12:24:15.445Z,19.83
2022-09-24T12:30:36.434Z,19.86
2022-09-24T12:36:13.200Z,20.02
2022-09-24T12:41:49.060Z,20.02
2022-09-24T12:46:58.466Z,20.31
2022-09-24T12:52:04.563Z,20.82
2022-09-24T12:57:18.144Z,20.93
2022-09-24T13:02:31.556Z,21.19
2022-09-24T13:12:54.521Z,21.51
2022-09-24T13:18:15.219Z,21.56
2022-09-24T13:23:20.080Z,21.71
2022-09-24T13:28:37.747Z,21.87
2022-09-24T13:33:46.678Z,22.03
2022-09-24T13:39:05.825Z,22.06
2022-09-24T13:44:14.765Z,22.02
2022-09-24T13:49:19.538Z,21.63
2022-09-24T14:00:52.823Z,21.38
2022-09-24T14:06:01.245Z,21.29
2022-09-24T14:11:28.053Z,21.22
2022-09-24T14:16:26.857Z,21.37
2022-09-24T14:21:42.398Z,21.13
2022-09-24T14:26:52.478Z,21.06
2022-09-24T14:31:58.702Z,21.02
2022-09-24T14:36:58.857Z,21.03
2022-09-24T14:41:58.281Z,20.95
2022-09-24T14:46:59.673Z,21.38
2022-09-24T14:52:01.466Z,21.38
2022-09-24T14:57:26.970Z,21.19
2022-09-24T15:02:38.241Z,21.63
2022-09-24T15:07:44.128Z,21.53
2022-09-24T15:12:46.356Z,21.05
2022-09-24T15:17:50.937Z,20.50
2022-09-24T15:22:55.091Z,20.35
2022-09-24T15:27:55.634Z,20.08
2022-09-24T15:32:58.203Z,19.79
2022-09-24T15:38:00.560Z,19.53
2022-09-24T15:43:02.722Z,19.48
2022-09-24T15:48:03.855Z,19.25
2022-09-24T15:53:04.633Z,18.95
2022-09-24T15:58:19.054Z,18.80
2022-09-24T16:03:30.752Z,18.75
2022-09-24T16:09:08.044Z,18.53
2022-09-24T16:14:06.017Z,18.21
2022-09-24T16:19:04.022Z,17.95
2022-09-24T16:24:05.057Z,18.06
2022-09-24T16:29:11.807Z,17.81
2022-09-24T16:34:11.680Z,17.74
2022-09-24T16:39:11.876Z,17.68
2022-09-24T16:44:15.424Z,17.61
2022-09-24T16:49:14.012Z,17.58
2022-09-24T16:54:15.340Z,17.32
2022-09-24T16:59:16.456Z,17.23
2022-09-24T17:04:15.222Z,17.17
2022-09-24T17:09:33.168Z,16.92
2022-09-24T17:14:36.114Z,16.91
2022-09-24T17:19:34.739Z,16.88
2022-09-24T17:24:40.035Z,16.74
2022-09-24T17:29:39.365Z,16.64
2022-09-24T17:34:49.064Z,16.80
2022-09-24T17:39:52.234Z,16.76
2022-09-24T17:44:53.594Z,16.57
2022-09-24T17:49:53.527Z,16.48
2022-09-24T17:54:52.698Z,16.57
2022-09-24T17:59:50.251Z,16.22
2022-09-24T18:04:49.256Z,16.34
2022-09-24T18:09:46.859Z,16.29
2022-09-24T18:14:46.099Z,16.12
2022-09-24T18:19:45.272Z,16.09
2022-09-24T18:24:44.757Z,15.96
2022-09-24T18:29:44.814Z,16.13
2022-09-24T18:34:43.738Z,15.98
2022-09-24T18:39:41.443Z,15.91
2022-09-24T18:44:41.075Z,15.94
2022-09-24T18:49:44.101Z,15.74
2022-09-24T18:54:44.048Z,15.84
2022-09-24T18:59:44.925Z,15.86
2022-09-24T19:04:43.474Z,15.62
2022-09-24T19:09:42.632Z,15.62
2022-09-24T19:14:40.562Z,15.53
2022-09-24T19:19:39.981Z,15.38
2022-09-24T19:24:39.193Z,15.51
2022-09-24T19:29:39.431Z,15.53
2022-09-24T19:34:38.619Z,15.44
2022-09-24T19:39:37.361Z,15.34
2022-09-24T19:44:36.814Z,15.46
2022-09-24T19:49:34.772Z,15.21
2022-09-24T19:54:34.172Z,15.26
2022-09-24T19:59:33.733Z,14.92
2022-09-24T20:04:35.681Z,14.73
2022-09-24T20:09:34.282Z,14.63
2022-09-24T20:14:33.802Z,14.72
2022-09-24T20:19:32.651Z,14.43
2022-09-24T20:24:31.699Z,14.49
2022-09-24T20:29:34.441Z,14.55
2022-09-24T20:34:35.504Z,14.57
2022-09-24T20:39:33.834Z,14.43
2022-09-24T20:44:33.721Z,14.52
2022-09-24T20:49:35.173Z,14.57
2022-09-24T20:54:34.866Z,14.32
2022-09-24T20:59:32.572Z,14.20
2022-09-24T21:04:30.080Z,14.26
2022-09-24T21:09:28.944Z,14.21
2022-09-24T21:14:30.760Z,14.15
2022-09-24T21:19:36.606Z,14.04
2022-09-24T21:24:35.108Z,14.15
2022-09-24T21:29:33.659Z,14.15
2022-09-24T21:34:32.290Z,14.37
2022-09-24T21:39:33.561Z,14.37
2022-09-24T21:44:37.487Z,14.28
2022-09-24T21:49:36.901Z,14.11
2022-09-24T21:54:39.864Z,13.71
2022-09-24T21:59:57.074Z,13.76
2022-09-24T22:04:57.196Z,12.99
2022-09-24T22:09:56.212Z,13.32
2022-09-24T22:14:55.991Z,13.44
2022-09-24T22:19:57.301Z,13.32
2022-09-24T22:24:55.874Z,13.27
2022-09-24T22:29:54.899Z,13.12
2022-09-24T22:35:14.040Z,13.03
2022-09-24T22:40:17.362Z,13.22
2022-09-24T22:45:16.415Z,12.80
2022-09-24T22:50:14.560Z,13.02
2022-09-24T22:55:18.095Z,12.79
2022-09-24T23:00:19.010Z,12.92
2022-09-24T23:05:21.406Z,12.97
2022-09-24T23:10:21.472Z,12.76
2022-09-24T23:15:21.824Z,12.93
2022-09-24T23:20:22.887Z,12.76
2022-09-24T23:25:21.698Z,12.79
2022-09-24T23:30:20.256Z,12.71
2022-09-24T23:35:19.757Z,12.71
2022-09-24T23:40:18.606Z,12.69
2022-09-24T23:45:18.282Z,12.59
2022-09-24T23:50:17.195Z,12.59
2022-09-24T23:55:14.843Z,12.43
